createdAt,value
2023-02-28T00:00:47.914Z,5.70
2023-02-28T00:03:18.343Z,4.28
2023-02-28T00:05:48.623Z,7.03
2023-02-28T00:08:21.480Z,6.05
2023-02-28T00:10:51.741Z,7.55
2023-02-28T00:13:22.031Z,7.20
2023-02-28T00:15:52.269Z,7.28
2023-02-28T00:18:22.590Z,6.38
2023-02-28T00:20:52.813Z,6.75
2023-02-28T00:23:25.865Z,7.93
2023-02-28T00:25:56.324Z,5.65
2023-02-28T00:28:26.685Z,5.53
2023-02-28T00:30:58.581Z,4.97
2023-02-28T00:33:29.013Z,6.60
2023-02-28T00:36:06.369Z,5.22
2023-02-28T00:38:39.254Z,5.25
2023-02-28T00:41:09.656Z,5.88
2023-02-28T00:43:41.159Z,4.93
2023-02-28T00:46:12.021Z,7.50
2023-02-28T00:48:42.271Z,4.82
2023-02-28T00:51:12.554Z,9.50
2023-02-28T00:53:45.530Z,11.55
2023-02-28T00:56:15.763Z,11.05
2023-02-28T00:58:46.268Z,7.78
2023-02-28T01:01:16.565Z,8.00
2023-02-28T01:03:48.264Z,6.13
2023-02-28T01:06:18.456Z,6.20
2023-02-28T01:08:51.281Z,5.30
2023-02-28T01:11:22.471Z,5.63
2023-02-28T01:13:52.729Z,5.03
2023-02-28T01:16:22.977Z,4.35
2023-02-28T01:18:53.267Z,6.18
2023-02-28T01:21:24.221Z,6.82
2023-02-28T01:23:57.109Z,6.90
2023-02-28T01:26:27.598Z,5.80
2023-02-28T01:28:57.890Z,5.80
2023-02-28T01:31:28.628Z,7.95
2023-02-28T01:33:59.179Z,6.60
2023-02-28T01:36:29.854Z,4.53
2023-02-28T01:39:02.744Z,7.13
2023-02-28T01:41:34.022Z,4.78
2023-02-28T01:44:09.007Z,9.15
2023-02-28T01:46:39.995Z,8.52
2023-02-28T01:49:13.771Z,5.10
2023-02-28T01:51:51.752Z,6.13
2023-02-28T01:54:25.882Z,6.85
2023-02-28T01:56:58.345Z,5.53
2023-02-28T01:59:31.590Z,4.75
2023-02-28T02:02:01.863Z,7.18
2023-02-28T02:04:37.208Z,6.70
2023-02-28T02:07:08.046Z,5.32
2023-02-28T02:09:41.228Z,6.53
2023-02-28T02:12:14.651Z,4.90
2023-02-28T02:14:54.613Z,6.55
2023-02-28T02:17:28.987Z,6.43
2023-02-28T02:20:23.233Z,8.27
2023-02-28T02:23:17.442Z,7.15
2023-02-28T02:25:54.214Z,5.63
2023-02-28T02:28:42.301Z,3.90
2023-02-28T02:31:31.096Z,7.00
2023-02-28T02:34:19.405Z,5.05
2023-02-28T02:36:56.120Z,4.50
2023-02-28T02:39:31.659Z,4.90
2023-02-28T02:42:05.917Z,4.10
2023-02-28T02:44:40.930Z,4.40
2023-02-28T02:47:13.211Z,5.40
2023-02-28T02:49:45.451Z,3.63
2023-02-28T02:52:19.607Z,4.15
2023-02-28T02:54:52.027Z,12.10
2023-02-28T02:57:24.997Z,6.07
2023-02-28T02:59:56.351Z,7.40
2023-02-28T03:02:27.628Z,5.05
2023-02-28T03:05:02.724Z,5.07
2023-02-28T03:07:35.585Z,4.03
2023-02-28T03:10:05.814Z,6.88
2023-02-28T03:12:43.929Z,5.78
2023-02-28T03:15:18.485Z,3.80
2023-02-28T03:18:02.651Z,4.28
2023-02-28T03:20:39.514Z,6.47
2023-02-28T03:23:18.308Z,4.40
2023-02-28T03:25:57.064Z,5.57
2023-02-28T03:28:30.431Z,5.07
2023-02-28T03:31:02.750Z,6.65
2023-02-28T03:33:34.775Z,5.50
2023-02-28T03:36:07.582Z,6.40
2023-02-28T03:38:42.415Z,4.72
2023-02-28T03:41:16.756Z,5.60
2023-02-28T03:43:49.639Z,6.38
2023-02-28T03:46:22.304Z,5.07
2023-02-28T03:48:55.976Z,7.82
2023-02-28T03:51:28.054Z,4.90
2023-02-28T03:54:02.920Z,6.35
2023-02-28T03:56:36.252Z,7.28
2023-02-28T03:59:09.579Z,5.63
2023-02-28T04:01:42.444Z,8.20
2023-02-28T04:04:13.142Z,7.72
2023-02-28T04:06:44.012Z,6.50
2023-02-28T04:09:18.575Z,4.60
2023-02-28T04:11:50.044Z,5.28
2023-02-28T04:14:20.248Z,5.53
2023-02-28T04:16:51.975Z,4.40
2023-02-28T04:19:22.370Z,7.80
2023-02-28T04:21:53.432Z,6.88
2023-02-28T04:24:26.997Z,4.43
2023-02-28T04:26:58.154Z,4.00
2023-02-28T04:29:29.519Z,6.55
2023-02-28T04:32:00.477Z,5.90
2023-02-28T04:34:31.517Z,6.03
2023-02-28T04:37:12.767Z,4.22
2023-02-28T04:39:46.652Z,5.00
2023-02-28T04:42:17.143Z,6.97
2023-02-28T04:44:48.262Z,4.63
2023-02-28T04:47:18.510Z,5.85
2023-02-28T04:49:48.796Z,8.00
2023-02-28T04:52:19.147Z,8.95
2023-02-28T04:54:51.989Z,3.60
2023-02-28T04:57:22.170Z,6.47
2023-02-28T04:59:52.412Z,6.07
2023-02-28T05:02:24.980Z,6.13
2023-02-28T05:04:55.504Z,5.65
2023-02-28T05:07:25.873Z,5.00
2023-02-28T05:09:58.794Z,4.95
2023-02-28T05:12:29.078Z,7.15
2023-02-28T05:14:59.344Z,7.25
2023-02-28T05:17:29.614Z,8.00
2023-02-28T05:20:13.390Z,6.20
2023-02-28T05:22:45.557Z,6.57
2023-02-28T05:25:20.850Z,4.38
2023-02-28T05:27:51.036Z,5.82
2023-02-28T05:30:21.635Z,8.40
2023-02-28T05:32:55.116Z,6.72
2023-02-28T05:35:25.415Z,9.00
2023-02-28T05:37:55.745Z,6.53
2023-02-28T05:40:28.628Z,8.52
2023-02-28T05:42:58.817Z,9.65
2023-02-28T05:45:29.501Z,9.07
2023-02-28T05:48:00.103Z,10.13
2023-02-28T05:50:30.388Z,6.15
2023-02-28T05:53:00.574Z,9.30
2023-02-28T05:55:33.521Z,8.85
2023-02-28T05:58:03.873Z,9.60
2023-02-28T06:00:34.378Z,8.50
2023-02-28T06:03:04.646Z,6.75
2023-02-28T06:05:34.957Z,9.38
2023-02-28T06:08:05.193Z,5.82
2023-02-28T06:10:38.284Z,10.77
2023-02-28T06:13:08.816Z,9.77
2023-02-28T06:15:39.149Z,10.15
2023-02-28T06:18:09.405Z,7.80
2023-02-28T06:20:39.849Z,7.25
2023-02-28T06:23:10.050Z,5.68
2023-02-28T06:25:42.930Z,5.60
2023-02-28T06:28:13.155Z,6.35
2023-02-28T06:30:46.366Z,8.25
2023-02-28T06:33:16.713Z,9.23
2023-02-28T06:35:48.622Z,7.10
2023-02-28T06:38:19.292Z,5.75
2023-02-28T06:40:57.448Z,4.03
2023-02-28T06:45:59.445Z,6.18
2023-02-28T06:48:30.408Z,5.75
2023-02-28T06:51:06.213Z,7.90
2023-02-28T06:53:36.657Z,4.97
2023-02-28T06:56:11.659Z,3.85
2023-02-28T06:58:42.642Z,4.85
2023-02-28T07:01:13.194Z,5.85
2023-02-28T07:03:43.440Z,5.60
2023-02-28T07:06:13.671Z,6.78
2023-02-28T07:08:44.339Z,5.72
2023-02-28T07:11:17.484Z,5.07
2023-02-28T07:13:48.642Z,6.18
2023-02-28T07:16:19.122Z,8.85
2023-02-28T07:18:49.328Z,5.95
2023-02-28T07:21:20.114Z,8.15
2023-02-28T07:23:50.305Z,5.88
2023-02-28T07:26:24.168Z,8.60
2023-02-28T07:28:55.347Z,8.02
2023-02-28T07:31:25.727Z,7.97
2023-02-28T07:33:57.481Z,5.47
2023-02-28T07:36:27.754Z,5.18
2023-02-28T07:38:58.025Z,6.85
2023-02-28T07:41:34.221Z,5.60
2023-02-28T07:44:04.618Z,5.82
2023-02-28T07:46:37.353Z,7.20
2023-02-28T07:49:08.259Z,9.75
2023-02-28T07:51:38.529Z,5.95
2023-02-28T07:54:09.128Z,7.07
2023-02-28T07:56:41.999Z,6.80
2023-02-28T07:59:12.224Z,5.63
2023-02-28T08:01:42.492Z,6.72
2023-02-28T08:04:12.768Z,4.57
2023-02-28T08:06:43.042Z,7.13
2023-02-28T08:09:13.413Z,5.93
2023-02-28T08:11:46.258Z,5.75
2023-02-28T08:14:16.702Z,4.85
2023-02-28T08:16:47.088Z,6.55
2023-02-28T08:19:17.327Z,14.13
2023-02-28T08:21:47.576Z,4.95
2023-02-28T08:24:17.781Z,6.10
2023-02-28T08:26:50.714Z,9.35
2023-02-28T08:29:20.953Z,6.05
2023-02-28T08:31:51.345Z,5.57
2023-02-28T08:34:21.638Z,4.05
2023-02-28T08:36:51.889Z,5.93
2023-02-28T08:39:22.097Z,4.30
2023-02-28T08:42:06.692Z,4.22
2023-02-28T08:44:37.718Z,5.65
2023-02-28T08:47:07.985Z,4.30
2023-02-28T08:49:38.684Z,6.93
2023-02-28T08:52:08.996Z,6.30
2023-02-28T08:54:40.430Z,3.47
2023-02-28T08:59:43.312Z,5.28
2023-02-28T09:02:14.094Z,5.30
2023-02-28T09:04:46.469Z,3.65
2023-02-28T09:07:16.827Z,2.80
2023-02-28T09:09:54.918Z,2.53
2023-02-28T09:12:25.402Z,2.42
2023-02-28T09:14:58.345Z,3.92
2023-02-28T09:17:30.847Z,3.00
2023-02-28T09:20:01.530Z,2.40
2023-02-28T09:22:31.877Z,2.35
2023-02-28T09:25:02.124Z,3.10
2023-02-28T09:27:32.373Z,1.75
2023-02-28T09:30:05.236Z,4.93
2023-02-28T09:32:35.516Z,2.90
2023-02-28T09:35:05.888Z,2.10
2023-02-28T09:37:36.147Z,3.13
2023-02-28T09:40:07.205Z,2.80
2023-02-28T09:45:12.585Z,2.65
2023-02-28T09:47:44.198Z,3.20
2023-02-28T09:50:20.714Z,2.50
2023-02-28T09:52:53.270Z,2.40
2023-02-28T09:55:26.326Z,2.00
2023-02-28T09:57:57.826Z,2.90
2023-02-28T10:00:33.247Z,1.95
2023-02-28T10:03:24.701Z,3.55
2023-02-28T10:05:57.308Z,2.17
2023-02-28T10:08:30.246Z,2.28
2023-02-28T10:11:01.801Z,4.82
2023-02-28T10:13:39.316Z,1.00
2023-02-28T10:16:15.267Z,1.75
2023-02-28T10:18:48.371Z,2.78
2023-02-28T10:21:22.197Z,2.42
2023-02-28T10:23:52.948Z,1.52
2023-02-28T10:26:24.991Z,2.75
2023-02-28T10:28:56.189Z,2.58
2023-02-28T10:31:29.216Z,1.95
2023-02-28T10:33:59.810Z,2.75
2023-02-28T10:36:30.321Z,3.28
2023-02-28T10:39:01.336Z,1.45
2023-02-28T10:41:33.039Z,1.70
2023-02-28T10:44:19.081Z,3.35
2023-02-28T10:46:52.986Z,1.77
2023-02-28T10:49:25.461Z,1.80
2023-02-28T10:51:57.949Z,2.10
2023-02-28T10:54:29.774Z,2.20
2023-02-28T10:57:13.899Z,1.95
2023-02-28T10:59:44.618Z,2.47
2023-02-28T11:04:48.895Z,2.63
2023-02-28T11:07:24.336Z,2.97
2023-02-28T11:09:55.750Z,1.92
2023-02-28T11:12:27.976Z,2.28
2023-02-28T11:14:59.803Z,2.40
2023-02-28T11:17:31.484Z,2.60
2023-02-28T11:20:06.237Z,1.88
2023-02-28T11:22:39.139Z,1.98
2023-02-28T11:25:12.475Z,2.13
2023-02-28T11:27:50.691Z,1.95
2023-02-28T11:30:36.944Z,1.85
2023-02-28T11:33:20.652Z,1.40
2023-02-28T11:35:54.159Z,1.65
2023-02-28T11:38:24.430Z,4.25
2023-02-28T11:40:59.357Z,3.05
2023-02-28T11:43:33.838Z,3.42
2023-02-28T11:46:10.289Z,2.20
2023-02-28T11:48:45.718Z,4.05
2023-02-28T11:51:24.871Z,2.20
2023-02-28T11:54:13.131Z,2.15
2023-02-28T11:56:44.671Z,1.65
2023-02-28T11:59:32.849Z,1.88
2023-02-28T12:02:10.139Z,3.20
2023-02-28T12:04:46.605Z,1.50
2023-02-28T12:07:23.382Z,1.20
2023-02-28T12:09:58.954Z,5.00
2023-02-28T12:12:37.645Z,2.35
2023-02-28T12:15:18.566Z,11.40
2023-02-28T12:17:56.331Z,3.03
2023-02-28T12:20:31.000Z,1.58
2023-02-28T12:23:11.711Z,1.67
2023-02-28T12:25:49.271Z,2.35
2023-02-28T12:28:21.072Z,2.50
2023-02-28T12:30:55.666Z,14.77
2023-02-28T12:33:29.957Z,2.97
2023-02-28T12:36:02.230Z,1.83
2023-02-28T12:38:38.901Z,1.75
2023-02-28T12:41:10.849Z,1.80
2023-02-28T12:43:42.326Z,2.05
2023-02-28T12:46:14.540Z,1.75
2023-02-28T12:48:47.251Z,1.50
2023-02-28T12:51:18.386Z,2.80
2023-02-28T12:54:00.567Z,3.47
2023-02-28T12:56:38.719Z,3.38
2023-02-28T12:59:16.031Z,1.50
2023-02-28T13:02:01.283Z,3.13
2023-02-28T13:04:49.391Z,1.80
2023-02-28T13:07:37.891Z,2.53
2023-02-28T13:10:11.471Z,2.03
2023-02-28T13:12:51.870Z,2.78
2023-02-28T13:15:25.972Z,1.35
2023-02-28T13:17:57.416Z,2.05
2023-02-28T13:20:28.779Z,2.22
2023-02-28T13:25:58.203Z,1.95
2023-02-28T13:28:43.390Z,1.73
2023-02-28T13:31:16.356Z,3.90
2023-02-28T13:34:03.313Z,2.28
2023-02-28T13:36:34.061Z,2.35
2023-02-28T13:39:06.457Z,2.17
2023-02-28T13:41:50.306Z,2.08
2023-02-28T13:44:24.324Z,2.67
2023-02-28T13:47:09.580Z,2.13
2023-02-28T13:49:42.799Z,2.63
2023-02-28T13:52:18.943Z,2.50
2023-02-28T13:54:56.994Z,2.70
2023-02-28T13:57:32.430Z,1.70
2023-02-28T14:00:10.209Z,2.45
2023-02-28T14:02:53.702Z,1.55
2023-02-28T14:05:27.971Z,1.90
2023-02-28T14:08:00.744Z,2.97
2023-02-28T14:10:33.660Z,3.97
2023-02-28T14:13:08.931Z,3.17
2023-02-28T14:15:48.344Z,1.52
2023-02-28T14:18:21.221Z,2.45
2023-02-28T14:20:56.662Z,1.77
2023-02-28T14:23:37.041Z,4.13
2023-02-28T14:26:18.101Z,2.25
2023-02-28T14:28:54.340Z,2.90
2023-02-28T14:31:28.641Z,2.33
2023-02-28T14:34:04.438Z,2.25
2023-02-28T14:36:39.929Z,8.32
2023-02-28T14:39:11.701Z,2.08
2023-02-28T14:41:43.192Z,3.97
2023-02-28T14:44:20.515Z,3.15
2023-02-28T14:46:52.276Z,2.33
2023-02-28T14:49:24.763Z,1.48
2023-02-28T14:52:07.023Z,2.85
2023-02-28T14:54:37.352Z,3.25
2023-02-28T14:57:08.136Z,2.58
2023-02-28T14:59:39.246Z,2.42
2023-02-28T15:02:27.120Z,1.80
2023-02-28T15:04:58.634Z,2.33
2023-02-28T15:07:34.495Z,1.63
2023-02-28T15:10:20.924Z,1.50
2023-02-28T15:12:54.424Z,1.75
2023-02-28T15:15:31.932Z,2.25
2023-02-28T15:18:11.725Z,1.63
2023-02-28T15:23:15.177Z,3.33
2023-02-28T15:25:46.099Z,2.70
2023-02-28T15:28:20.477Z,4.95
2023-02-28T15:30:58.076Z,2.55
2023-02-28T15:33:29.197Z,2.20
2023-02-28T15:36:11.101Z,6.07
2023-02-28T15:38:44.751Z,2.30
2023-02-28T15:41:26.264Z,2.80
2023-02-28T15:44:11.244Z,3.03
2023-02-28T15:46:41.965Z,2.42
2023-02-28T15:49:21.770Z,5.40
2023-02-28T15:51:53.566Z,2.30
2023-02-28T15:54:28.509Z,1.73
2023-02-28T15:57:00.342Z,4.82
2023-02-28T15:59:32.112Z,1.05
2023-02-28T16:02:19.215Z,3.72
2023-02-28T16:05:03.407Z,4.90
2023-02-28T16:07:34.346Z,2.90
2023-02-28T16:10:08.012Z,2.15
2023-02-28T16:12:42.278Z,1.83
2023-02-28T16:15:13.943Z,2.88
2023-02-28T16:17:44.513Z,3.20
2023-02-28T16:20:17.665Z,2.72
2023-02-28T16:22:48.106Z,2.67
2023-02-28T16:25:21.604Z,1.85
2023-02-28T16:27:54.948Z,2.58
2023-02-28T16:30:27.411Z,2.78
2023-02-28T16:32:59.347Z,1.85
2023-02-28T16:35:29.664Z,1.27
2023-02-28T16:38:00.120Z,1.83
2023-02-28T16:40:37.668Z,1.98
2023-02-28T16:43:10.614Z,1.85
2023-02-28T16:45:40.920Z,1.92
2023-02-28T16:48:15.934Z,3.38
2023-02-28T16:50:46.629Z,3.95
2023-02-28T16:53:17.052Z,5.28
2023-02-28T16:55:51.991Z,2.92
2023-02-28T16:58:24.732Z,5.45
2023-02-28T17:00:55.331Z,2.65
2023-02-28T17:03:33.222Z,2.10
2023-02-28T17:06:04.184Z,5.38
2023-02-28T17:08:34.679Z,2.63
2023-02-28T17:11:07.560Z,3.15
2023-02-28T17:13:37.992Z,4.15
2023-02-28T17:16:08.982Z,3.53
2023-02-28T17:18:40.224Z,4.15
2023-02-28T17:21:14.222Z,3.00
2023-02-28T17:23:44.646Z,12.68
2023-02-28T17:26:21.048Z,2.40
2023-02-28T17:28:52.171Z,6.05
2023-02-28T17:31:22.857Z,4.15
2023-02-28T17:33:53.544Z,4.53
2023-02-28T17:36:25.893Z,6.72
2023-02-28T17:38:56.750Z,3.55
2023-02-28T17:41:31.463Z,3.70
2023-02-28T17:44:01.811Z,2.92
2023-02-28T17:46:32.543Z,2.72
2023-02-28T17:49:03.299Z,3.45
2023-02-28T17:51:33.662Z,4.70
2023-02-28T17:54:04.087Z,4.28
2023-02-28T17:56:36.974Z,5.20
2023-02-28T17:59:07.552Z,8.63
2023-02-28T18:01:37.937Z,6.90
2023-02-28T18:04:08.391Z,5.68
2023-02-28T18:06:48.738Z,3.92
2023-02-28T18:09:19.786Z,3.50
2023-02-28T18:11:52.891Z,5.32
2023-02-28T18:14:24.726Z,4.03
2023-02-28T18:16:56.062Z,4.75
2023-02-28T18:19:26.522Z,6.50
2023-02-28T18:21:57.642Z,4.03
2023-02-28T18:24:28.032Z,3.28
2023-02-28T18:27:00.855Z,4.75
2023-02-28T18:29:32.828Z,6.45
2023-02-28T18:32:03.858Z,5.93
2023-02-28T18:34:34.196Z,6.53
2023-02-28T18:37:04.464Z,4.70
2023-02-28T18:39:34.955Z,5.63
2023-02-28T18:42:07.867Z,8.55
2023-02-28T18:44:38.251Z,6.18
2023-02-28T18:47:08.659Z,4.95
2023-02-28T18:49:39.195Z,5.53
2023-02-28T18:52:09.439Z,5.60
2023-02-28T18:54:39.848Z,4.07
2023-02-28T18:57:12.680Z,18.40
2023-02-28T18:59:43.123Z,10.85
2023-02-28T19:02:13.536Z,7.22
2023-02-28T19:04:44.918Z,6.75
2023-02-28T19:07:15.175Z,8.63
2023-02-28T19:09:45.439Z,7.07
2023-02-28T19:12:20.698Z,8.07
2023-02-28T19:14:50.980Z,10.75
2023-02-28T19:17:21.318Z,6.32
2023-02-28T19:19:51.593Z,7.05
2023-02-28T19:22:21.800Z,8.65
2023-02-28T19:24:53.593Z,7.20
2023-02-28T19:27:27.006Z,6.05
2023-02-28T19:29:59.335Z,7.25
2023-02-28T19:32:30.135Z,6.78
2023-02-28T19:35:00.484Z,7.55
2023-02-28T19:37:30.868Z,6.43
2023-02-28T19:40:01.137Z,6.88
2023-02-28T19:42:35.207Z,6.78
2023-02-28T19:45:05.751Z,8.43
2023-02-28T19:47:35.972Z,8.65
2023-02-28T19:50:06.821Z,9.57
2023-02-28T19:52:37.379Z,6.88
2023-02-28T19:55:08.451Z,8.15
2023-02-28T19:57:41.308Z,8.27
2023-02-28T20:00:12.246Z,9.75
2023-02-28T20:02:42.469Z,7.38
2023-02-28T20:05:13.140Z,21.20
2023-02-28T20:07:43.811Z,12.65
2023-02-28T20:10:15.010Z,8.98
2023-02-28T20:12:47.936Z,10.43
2023-02-28T20:15:18.563Z,9.73
2023-02-28T20:17:48.793Z,7.03
2023-02-28T20:20:19.916Z,10.00
2023-02-28T20:22:50.445Z,6.82
2023-02-28T20:25:21.087Z,7.70
2023-02-28T20:27:53.973Z,11.52
2023-02-28T20:30:25.048Z,11.35
2023-02-28T20:32:55.382Z,10.80
2023-02-28T20:35:25.819Z,8.82
2023-02-28T20:37:56.076Z,12.30
2023-02-28T20:40:26.373Z,12.52
2023-02-28T20:42:59.212Z,9.98
2023-02-28T20:45:29.567Z,11.52
2023-02-28T20:47:59.786Z,8.82
2023-02-28T20:50:30.057Z,7.97
2023-02-28T20:53:00.301Z,9.98
2023-02-28T20:55:30.600Z,12.55
2023-02-28T20:58:03.463Z,10.55
2023-02-28T21:00:33.879Z,10.80
2023-02-28T21:03:04.198Z,12.32
2023-02-28T21:05:34.493Z,11.55
2023-02-28T21:08:05.130Z,11.85
2023-02-28T21:10:35.411Z,16.10
2023-02-28T21:13:08.284Z,13.25
2023-02-28T21:15:40.705Z,11.95
2023-02-28T21:18:10.958Z,13.20
2023-02-28T21:20:41.291Z,14.63
2023-02-28T21:23:11.632Z,10.90
2023-02-28T21:25:42.513Z,9.77
2023-02-28T21:28:15.386Z,18.63
2023-02-28T21:30:45.924Z,10.90
2023-02-28T21:33:16.332Z,10.52
2023-02-28T21:35:47.734Z,10.70
2023-02-28T21:38:18.257Z,12.23
2023-02-28T21:40:51.477Z,12.82
2023-02-28T21:43:26.243Z,12.35
2023-02-28T21:45:56.546Z,13.43
2023-02-28T21:48:26.802Z,13.57
2023-02-28T21:51:01.658Z,12.75
2023-02-28T21:53:32.028Z,13.18
2023-02-28T21:56:03.767Z,12.27
2023-02-28T21:58:36.641Z,9.80
2023-02-28T22:01:12.627Z,12.60
2023-02-28T22:03:43.164Z,10.52
2023-02-28T22:06:15.028Z,9.60
2023-02-28T22:08:45.859Z,10.77
2023-02-28T22:11:16.592Z,9.43
2023-02-28T22:13:50.627Z,10.40
2023-02-28T22:16:22.033Z,9.15
2023-02-28T22:18:52.346Z,10.52
2023-02-28T22:21:22.948Z,11.18
2023-02-28T22:23:53.639Z,10.63
2023-02-28T22:26:25.305Z,9.48
2023-02-28T22:28:58.264Z,10.63
2023-02-28T22:31:29.787Z,11.05
2023-02-28T22:36:30.885Z,12.90
2023-02-28T22:39:02.118Z,10.95
2023-02-28T22:41:32.705Z,10.07
2023-02-28T22:44:07.366Z,11.25
2023-02-28T22:46:38.528Z,12.13
2023-02-28T22:49:09.344Z,14.15
2023-02-28T22:51:39.777Z,18.58
2023-02-28T22:54:10.051Z,11.05
2023-02-28T22:56:40.305Z,12.07
2023-02-28T22:59:15.378Z,13.70
2023-02-28T23:01:45.906Z,14.23
2023-02-28T23:04:16.246Z,13.10
2023-02-28T23:06:47.269Z,11.70
2023-02-28T23:09:21.629Z,10.32
2023-02-28T23:11:52.712Z,9.30
2023-02-28T23:14:25.608Z,11.43
2023-02-28T23:16:58.325Z,11.13
2023-02-28T23:19:29.872Z,11.35
2023-02-28T23:24:32.000Z,11.40
2023-02-28T23:27:03.824Z,9.25
2023-02-28T23:29:36.852Z,10.10
2023-02-28T23:32:08.492Z,8.98
2023-02-28T23:34:38.774Z,9.23
2023-02-28T23:37:09.785Z,11.30
2023-02-28T23:39:41.589Z,10.07
2023-02-28T23:42:12.180Z,9.30
2023-02-28T23:44:45.276Z,11.25
2023-02-28T23:47:15.874Z,10.18
2023-02-28T23:49:48.355Z,13.80
2023-02-28T23:52:18.666Z,11.00
2023-02-28T23:54:48.951Z,9.80
2023-02-28T23:57:19.219Z,9.02
2023-02-28T23:59:52.073Z,10.60
